Cary, NC

7:22 AM EDT on April 25, 2015 (GMT -0400)
Harmony Subdivision II | | Change Station
CLOSE
Current Station
Personal Weather Station
Location: Cary, NC
Elevation: 335 ft
Nearby Weather Stations

Elev 335 ft 35.77 °N, 78.88 °W | Updated 9 minutes ago

Overcast
Overcast
49.3 °F
Feels Like 49 °F
N
0.0
Wind Variable Wind from SSW

Today
High -- | Low -- °F
--% Chance of Precip.
Yesterday
High -- | Low -- °F
Precip. -- in
6:30 AM 7:57 PM
Waxing Crescent, 45% visible
Pressure 29.92 in
Visibility 10.0 miles
Clouds Mostly Cloudy 10000 ft
Windchill 49 °F
Dew Point 48 °F
Humidity 96%
Rainfall 0.00 in
Snow Depth Not available.
UV 0 out of 12
Pollen 9.60 out of 12
Air Quality Not available.
Flu Activity Sporadic
METAR KRDU 251051Z 00000KT 10SM BKN100 10/06 A2993 RMK AO2 SLP132 T01000061 $

More Conditions Fewer Conditions

Pressure 29.92 in
Visibility 10.0 miles
Clouds Mostly Cloudy 10000 ft
Windchill 49 °F
Dew Point 48 °F
Humidity 96%
Rainfall 0.00 in
Snow Depth Not available.
UV 0 out of 12
Pollen 9.60 out of 12
Air Quality Not available.
Flu Activity Sporadic
METAR KRDU 251051Z 00000KT 10SM BKN100 10/06 A2993 RMK AO2 SLP132 T01000061 $

More Conditions Fewer Conditions

10-Day Weather Forecast

Almanac

Astronomy

Apr. 25, 2015 Rise Set
Actual Time
Civil Twilight
Nautical Twilight
Astronomical Twilight
Moon
Length of Visible Light
Length of Day
Tomorrow will be .
, % of the Moon is Illuminated

Today's Extremes

State Highs State Lows

Community

WunderPhotos

Upload Photos

1,816,639 photos uploaded!

WunderBlogs® & News

Nearby

Air Quality

  Air Quality AQ Index Pollutant
Not available.

Snow Depth

Station Depth Elevation

Earthquake Activity

City Distance Mag. Time & Date
Minimum magnitude displayed is 2.5.

Coastal Water Temperatures

Place Temperature

Stations

Nearby Weather Stations

Station Location Temp. Windchill Dew Point Humidity Wind Precip. Elev Updated Type